sensor_id;sensor_type;location;lat;lon;timestamp;P1;durP1;ratioP1;P2;durP2;ratioP2
52798;SDS011;38667;42.872;74.622;2022-08-24T00:00:26;26.45;;;5.05;;
52798;SDS011;38667;42.872;74.622;2022-08-24T00:02:53;30.10;;;5.25;;
52798;SDS011;38667;42.872;74.622;2022-08-24T00:05:19;21.90;;;5.45;;
52798;SDS011;38667;42.872;74.622;2022-08-24T00:07:46;21.95;;;5.13;;
52798;SDS011;38667;42.872;74.622;2022-08-24T00:10:13;14.98;;;4.15;;
52798;SDS011;38667;42.872;74.622;2022-08-24T00:12:40;18.60;;;4.80;;
52798;SDS011;38667;42.872;74.622;2022-08-24T00:15:07;13.35;;;5.20;;
52798;SDS011;38667;42.872;74.622;2022-08-24T00:17:37;19.70;;;5.15;;
52798;SDS011;38667;42.872;74.622;2022-08-24T00:20:04;16.75;;;4.88;;
52798;SDS011;38667;42.872;74.622;2022-08-24T00:22:33;14.57;;;4.78;;
52798;SDS011;38667;42.872;74.622;2022-08-24T00:24:59;12.38;;;4.68;;
52798;SDS011;38667;42.872;74.622;2022-08-24T00:27:26;18.73;;;4.78;;
52798;SDS011;38667;42.872;74.622;2022-08-24T00:29:52;13.45;;;4.97;;
52798;SDS011;38667;42.872;74.622;2022-08-24T00:32:18;16.65;;;6.63;;
52798;SDS011;38667;42.872;74.622;2022-08-24T00:34:46;11.45;;;6.13;;
52798;SDS011;38667;42.872;74.622;2022-08-24T00:37:13;17.20;;;6.05;;
52798;SDS011;38667;42.872;74.622;2022-08-24T00:39:39;15.00;;;6.80;;
52798;SDS011;38667;42.872;74.622;2022-08-24T00:42:05;19.08;;;6.25;;
52798;SDS011;38667;42.872;74.622;2022-08-24T00:44:32;18.95;;;6.60;;
52798;SDS011;38667;42.872;74.622;2022-08-24T00:46:58;21.83;;;6.15;;
52798;SDS011;38667;42.872;74.622;2022-08-24T00:49:28;19.77;;;8.70;;
52798;SDS011;38667;42.872;74.622;2022-08-24T00:52:10;24.20;;;8.07;;
52798;SDS011;38667;42.872;74.622;2022-08-24T00:54:40;23.48;;;7.70;;
52798;SDS011;38667;42.872;74.622;2022-08-24T00:57:08;23.98;;;8.27;;
52798;SDS011;38667;42.872;74.622;2022-08-24T00:59:37;24.05;;;8.80;;
52798;SDS011;38667;42.872;74.622;2022-08-24T01:02:09;16.17;;;10.40;;
52798;SDS011;38667;42.872;74.622;2022-08-24T01:04:40;19.75;;;9.57;;
52798;SDS011;38667;42.872;74.622;2022-08-24T01:07:11;21.10;;;9.20;;
52798;SDS011;38667;42.872;74.622;2022-08-24T01:09:37;28.88;;;7.10;;
52798;SDS011;38667;42.872;74.622;2022-08-24T01:12:03;19.73;;;9.02;;
52798;SDS011;38667;42.872;74.622;2022-08-24T01:14:30;18.05;;;8.55;;
52798;SDS011;38667;42.872;74.622;2022-08-24T01:16:56;33.85;;;9.82;;
52798;SDS011;38667;42.872;74.622;2022-08-24T01:19:27;25.45;;;10.85;;
52798;SDS011;38667;42.872;74.622;2022-08-24T01:22:01;26.88;;;9.95;;
52798;SDS011;38667;42.872;74.622;2022-08-24T01:24:49;27.35;;;9.30;;
52798;SDS011;38667;42.872;74.622;2022-08-24T01:27:15;18.95;;;7.40;;
52798;SDS011;38667;42.872;74.622;2022-08-24T01:29:41;24.17;;;7.25;;
52798;SDS011;38667;42.872;74.622;2022-08-24T01:32:10;19.73;;;7.43;;
52798;SDS011;38667;42.872;74.622;2022-08-24T01:34:37;20.75;;;7.70;;
52798;SDS011;38667;42.872;74.622;2022-08-24T01:37:04;21.33;;;8.02;;
52798;SDS011;38667;42.872;74.622;2022-08-24T01:39:34;23.40;;;7.90;;
52798;SDS011;38667;42.872;74.622;2022-08-24T01:42:05;25.63;;;7.95;;
52798;SDS011;38667;42.872;74.622;2022-08-24T01:44:32;29.85;;;8.30;;
52798;SDS011;38667;42.872;74.622;2022-08-24T01:46:59;34.85;;;9.18;;
52798;SDS011;38667;42.872;74.622;2022-08-24T01:49:27;31.70;;;8.63;;
52798;SDS011;38667;42.872;74.622;2022-08-24T01:51:58;24.30;;;9.23;;
52798;SDS011;38667;42.872;74.622;2022-08-24T01:54:24;22.42;;;7.45;;
52798;SDS011;38667;42.872;74.622;2022-08-24T01:56:51;17.30;;;7.20;;
52798;SDS011;38667;42.872;74.622;2022-08-24T01:59:19;22.73;;;7.05;;
52798;SDS011;38667;42.872;74.622;2022-08-24T02:01:47;21.67;;;6.82;;
52798;SDS011;38667;42.872;74.622;2022-08-24T02:04:17;17.17;;;6.93;;
52798;SDS011;38667;42.872;74.622;2022-08-24T02:06:43;19.55;;;7.47;;
52798;SDS011;38667;42.872;74.622;2022-08-24T02:09:10;21.08;;;6.68;;
52798;SDS011;38667;42.872;74.622;2022-08-24T02:11:36;26.52;;;8.77;;
52798;SDS011;38667;42.872;74.622;2022-08-24T02:14:03;25.30;;;8.63;;
52798;SDS011;38667;42.872;74.622;2022-08-24T02:16:32;19.25;;;8.38;;
52798;SDS011;38667;42.872;74.622;2022-08-24T02:18:58;23.23;;;7.90;;
52798;SDS011;38667;42.872;74.622;2022-08-24T02:21:24;23.02;;;7.65;;
52798;SDS011;38667;42.872;74.622;2022-08-24T02:23:51;20.65;;;7.03;;
52798;SDS011;38667;42.872;74.622;2022-08-24T02:26:17;15.07;;;6.20;;
52798;SDS011;38667;42.872;74.622;2022-08-24T02:28:43;23.95;;;7.28;;
52798;SDS011;38667;42.872;74.622;2022-08-24T02:31:10;20.73;;;6.43;;
52798;SDS011;38667;42.872;74.622;2022-08-24T02:33:39;20.65;;;6.70;;
52798;SDS011;38667;42.872;74.622;2022-08-24T02:36:07;23.27;;;6.15;;
52798;SDS011;38667;42.872;74.622;2022-08-24T02:38:34;24.55;;;7.07;;
52798;SDS011;38667;42.872;74.622;2022-08-24T02:41:01;23.13;;;8.63;;
52798;SDS011;38667;42.872;74.622;2022-08-24T02:43:27;33.20;;;10.18;;
52798;SDS011;38667;42.872;74.622;2022-08-24T02:45:54;29.75;;;10.60;;
52798;SDS011;38667;42.872;74.622;2022-08-24T02:48:20;30.05;;;10.52;;
52798;SDS011;38667;42.872;74.622;2022-08-24T02:50:49;25.70;;;10.70;;
52798;SDS011;38667;42.872;74.622;2022-08-24T02:53:17;26.42;;;11.10;;
52798;SDS011;38667;42.872;74.622;2022-08-24T02:55:44;28.58;;;10.30;;
52798;SDS011;38667;42.872;74.622;2022-08-24T02:58:11;26.02;;;10.70;;
52798;SDS011;38667;42.872;74.622;2022-08-24T03:00:42;24.95;;;11.18;;
52798;SDS011;38667;42.872;74.622;2022-08-24T03:03:09;22.63;;;10.63;;
52798;SDS011;38667;42.872;74.622;2022-08-24T03:05:36;24.10;;;10.82;;
52798;SDS011;38667;42.872;74.622;2022-08-24T03:08:04;22.38;;;9.10;;
52798;SDS011;38667;42.872;74.622;2022-08-24T03:10:31;23.05;;;8.38;;
52798;SDS011;38667;42.872;74.622;2022-08-24T03:12:58;28.77;;;8.55;;
52798;SDS011;38667;42.872;74.622;2022-08-24T03:15:24;27.38;;;7.45;;
52798;SDS011;38667;42.872;74.622;2022-08-24T03:17:51;12.38;;;5.97;;
52798;SDS011;38667;42.872;74.622;2022-08-24T03:20:19;20.73;;;6.30;;
52798;SDS011;38667;42.872;74.622;2022-08-24T03:22:47;20.05;;;6.38;;
52798;SDS011;38667;42.872;74.622;2022-08-24T03:25:15;16.23;;;5.43;;
52798;SDS011;38667;42.872;74.622;2022-08-24T03:27:43;14.32;;;5.47;;
52798;SDS011;38667;42.872;74.622;2022-08-24T03:30:10;19.27;;;4.90;;
52798;SDS011;38667;42.872;74.622;2022-08-24T03:32:38;18.90;;;5.45;;
52798;SDS011;38667;42.872;74.622;2022-08-24T03:35:05;14.13;;;4.85;;
52798;SDS011;38667;42.872;74.622;2022-08-24T03:37:32;14.52;;;5.85;;
52798;SDS011;38667;42.872;74.622;2022-08-24T03:39:59;13.60;;;5.20;;
52798;SDS011;38667;42.872;74.622;2022-08-24T03:42:27;13.77;;;5.00;;
52798;SDS011;38667;42.872;74.622;2022-08-24T03:44:53;21.05;;;5.35;;
52798;SDS011;38667;42.872;74.622;2022-08-24T03:47:20;19.40;;;5.80;;
52798;SDS011;38667;42.872;74.622;2022-08-24T03:49:46;17.92;;;6.32;;
52798;SDS011;38667;42.872;74.622;2022-08-24T03:52:12;12.80;;;5.45;;
52798;SDS011;38667;42.872;74.622;2022-08-24T03:54:39;13.95;;;6.07;;
52798;SDS011;38667;42.872;74.622;2022-08-24T03:57:05;17.85;;;6.18;;
52798;SDS011;38667;42.872;74.622;2022-08-24T03:59:33;14.93;;;6.35;;
52798;SDS011;38667;42.872;74.622;2022-08-24T04:01:59;17.38;;;6.50;;
52798;SDS011;38667;42.872;74.622;2022-08-24T04:04:25;19.80;;;6.55;;
52798;SDS011;38667;42.872;74.622;2022-08-24T04:06:52;12.23;;;5.88;;
52798;SDS011;38667;42.872;74.622;2022-08-24T04:09:18;17.50;;;6.20;;
52798;SDS011;38667;42.872;74.622;2022-08-24T04:11:45;25.00;;;6.63;;
52798;SDS011;38667;42.872;74.622;2022-08-24T04:14:11;18.92;;;6.60;;
52798;SDS011;38667;42.872;74.622;2022-08-24T04:16:40;16.30;;;5.55;;
52798;SDS011;38667;42.872;74.622;2022-08-24T04:19:07;23.05;;;7.20;;
52798;SDS011;38667;42.872;74.622;2022-08-24T04:21:33;14.38;;;6.55;;
52798;SDS011;38667;42.872;74.622;2022-08-24T04:24:01;19.33;;;7.05;;
52798;SDS011;38667;42.872;74.622;2022-08-24T04:26:29;21.38;;;6.75;;
52798;SDS011;38667;42.872;74.622;2022-08-24T04:28:56;24.05;;;7.10;;
52798;SDS011;38667;42.872;74.622;2022-08-24T04:31:23;19.05;;;8.07;;
52798;SDS011;38667;42.872;74.622;2022-08-24T04:33:52;16.58;;;7.38;;
52798;SDS011;38667;42.872;74.622;2022-08-24T04:36:19;17.75;;;7.28;;
52798;SDS011;38667;42.872;74.622;2022-08-24T04:38:46;20.80;;;7.10;;
52798;SDS011;38667;42.872;74.622;2022-08-24T04:41:14;28.40;;;8.18;;
52798;SDS011;38667;42.872;74.622;2022-08-24T04:43:41;23.05;;;8.10;;
52798;SDS011;38667;42.872;74.622;2022-08-24T04:46:08;24.33;;;7.15;;
52798;SDS011;38667;42.872;74.622;2022-08-24T04:48:34;15.23;;;6.80;;
52798;SDS011;38667;42.872;74.622;2022-08-24T04:51:03;19.02;;;6.68;;
52798;SDS011;38667;42.872;74.622;2022-08-24T04:53:31;19.23;;;5.50;;
52798;SDS011;38667;42.872;74.622;2022-08-24T04:55:58;21.15;;;6.40;;
52798;SDS011;38667;42.872;74.622;2022-08-24T04:58:25;14.50;;;6.15;;
52798;SDS011;38667;42.872;74.622;2022-08-24T05:00:53;17.58;;;5.55;;
52798;SDS011;38667;42.872;74.622;2022-08-24T05:03:19;16.88;;;5.55;;
52798;SDS011;38667;42.872;74.622;2022-08-24T05:05:46;16.80;;;5.35;;
52798;SDS011;38667;42.872;74.622;2022-08-24T05:08:16;17.77;;;5.47;;
52798;SDS011;38667;42.872;74.622;2022-08-24T05:10:45;19.80;;;5.68;;
52798;SDS011;38667;42.872;74.622;2022-08-24T05:22:21;10.38;;;4.10;;
52798;SDS011;38667;42.872;74.622;2022-08-24T05:24:49;12.50;;;3.55;;
52798;SDS011;38667;42.872;74.622;2022-08-24T05:27:16;7.45;;;3.47;;
52798;SDS011;38667;42.872;74.622;2022-08-24T05:29:42;10.20;;;4.03;;
52798;SDS011;38667;42.872;74.622;2022-08-24T05:32:09;10.73;;;2.90;;
52798;SDS011;38667;42.872;74.622;2022-08-24T05:34:35;12.48;;;3.72;;
52798;SDS011;38667;42.872;74.622;2022-08-24T05:37:02;13.27;;;3.60;;
52798;SDS011;38667;42.872;74.622;2022-08-24T05:39:28;8.40;;;3.50;;
52798;SDS011;38667;42.872;74.622;2022-08-24T05:41:56;14.23;;;3.80;;
52798;SDS011;38667;42.872;74.622;2022-08-24T05:44:22;9.80;;;3.40;;
52798;SDS011;38667;42.872;74.622;2022-08-24T05:46:49;6.93;;;3.90;;
52798;SDS011;38667;42.872;74.622;2022-08-24T05:49:15;12.13;;;3.60;;
52798;SDS011;38667;42.872;74.622;2022-08-24T05:51:41;7.43;;;2.88;;
52798;SDS011;38667;42.872;74.622;2022-08-24T05:54:07;12.35;;;3.60;;
52798;SDS011;38667;42.872;74.622;2022-08-24T05:56:34;9.13;;;3.55;;
52798;SDS011;38667;42.872;74.622;2022-08-24T05:59:02;10.98;;;3.70;;
52798;SDS011;38667;42.872;74.622;2022-08-24T06:01:28;12.10;;;4.07;;
52798;SDS011;38667;42.872;74.622;2022-08-24T06:03:56;22.42;;;5.82;;
52798;SDS011;38667;42.872;74.622;2022-08-24T06:06:23;13.98;;;6.43;;
52798;SDS011;38667;42.872;74.622;2022-08-24T06:08:51;14.68;;;4.00;;
52798;SDS011;38667;42.872;74.622;2022-08-24T06:11:19;6.53;;;3.95;;
52798;SDS011;38667;42.872;74.622;2022-08-24T06:13:46;8.30;;;3.60;;
52798;SDS011;38667;42.872;74.622;2022-08-24T06:16:14;11.00;;;3.85;;
52798;SDS011;38667;42.872;74.622;2022-08-24T06:18:40;7.70;;;3.30;;
52798;SDS011;38667;42.872;74.622;2022-08-24T06:21:07;10.68;;;3.67;;
52798;SDS011;38667;42.872;74.622;2022-08-24T06:23:36;12.80;;;3.38;;
52798;SDS011;38667;42.872;74.622;2022-08-24T06:26:03;8.35;;;3.05;;
52798;SDS011;38667;42.872;74.622;2022-08-24T06:28:30;6.20;;;2.92;;
52798;SDS011;38667;42.872;74.622;2022-08-24T06:31:01;10.52;;;2.90;;
52798;SDS011;38667;42.872;74.622;2022-08-24T06:33:29;10.57;;;3.15;;
52798;SDS011;38667;42.872;74.622;2022-08-24T06:35:55;8.88;;;2.47;;
52798;SDS011;38667;42.872;74.622;2022-08-24T06:38:22;6.70;;;2.88;;
52798;SDS011;38667;42.872;74.622;2022-08-24T06:40:48;9.65;;;2.50;;
52798;SDS011;38667;42.872;74.622;2022-08-24T06:43:14;6.63;;;2.88;;
52798;SDS011;38667;42.872;74.622;2022-08-24T06:45:41;11.65;;;3.63;;
52798;SDS011;38667;42.872;74.622;2022-08-24T06:48:07;9.35;;;2.90;;
52798;SDS011;38667;42.872;74.622;2022-08-24T06:50:35;9.15;;;3.40;;
52798;SDS011;38667;42.872;74.622;2022-08-24T06:53:03;11.88;;;3.15;;
52798;SDS011;38667;42.872;74.622;2022-08-24T06:55:29;12.88;;;3.53;;
52798;SDS011;38667;42.872;74.622;2022-08-24T06:57:55;8.05;;;3.83;;
52798;SDS011;38667;42.872;74.622;2022-08-24T07:00:22;5.60;;;2.45;;
52798;SDS011;38667;42.872;74.622;2022-08-24T07:02:48;9.20;;;3.13;;
52798;SDS011;38667;42.872;74.622;2022-08-24T07:05:15;11.57;;;3.20;;
52798;SDS011;38667;42.872;74.622;2022-08-24T07:07:43;12.02;;;5.20;;
52798;SDS011;38667;42.872;74.622;2022-08-24T07:10:09;14.55;;;3.60;;
52798;SDS011;38667;42.872;74.622;2022-08-24T07:12:35;12.88;;;3.50;;
52798;SDS011;38667;42.872;74.622;2022-08-24T07:15:03;11.70;;;3.53;;
52798;SDS011;38667;42.872;74.622;2022-08-24T07:17:30;8.13;;;2.80;;
52798;SDS011;38667;42.872;74.622;2022-08-24T07:19:57;12.68;;;3.30;;
52798;SDS011;38667;42.872;74.622;2022-08-24T07:22:23;9.25;;;2.90;;
52798;SDS011;38667;42.872;74.622;2022-08-24T07:24:51;9.10;;;2.83;;
52798;SDS011;38667;42.872;74.622;2022-08-24T07:27:17;10.07;;;3.90;;
52798;SDS011;38667;42.872;74.622;2022-08-24T07:29:43;10.38;;;3.65;;
52798;SDS011;38667;42.872;74.622;2022-08-24T07:32:10;11.07;;;3.38;;
52798;SDS011;38667;42.872;74.622;2022-08-24T07:34:36;9.40;;;3.45;;
52798;SDS011;38667;42.872;74.622;2022-08-24T07:37:02;10.30;;;3.38;;
52798;SDS011;38667;42.872;74.622;2022-08-24T07:39:29;12.27;;;3.92;;
52798;SDS011;38667;42.872;74.622;2022-08-24T07:41:57;15.35;;;3.97;;
52798;SDS011;38667;42.872;74.622;2022-08-24T07:44:23;8.60;;;3.22;;
52798;SDS011;38667;42.872;74.622;2022-08-24T07:46:49;15.52;;;3.78;;
52798;SDS011;38667;42.872;74.622;2022-08-24T07:49:16;11.57;;;3.60;;
52798;SDS011;38667;42.872;74.622;2022-08-24T07:51:42;8.63;;;3.30;;
52798;SDS011;38667;42.872;74.622;2022-08-24T07:54:08;11.48;;;3.47;;
52798;SDS011;38667;42.872;74.622;2022-08-24T07:56:35;10.45;;;4.28;;
52798;SDS011;38667;42.872;74.622;2022-08-24T07:59:03;10.77;;;3.90;;
52798;SDS011;38667;42.872;74.622;2022-08-24T08:01:29;11.63;;;2.88;;
52798;SDS011;38667;42.872;74.622;2022-08-24T08:03:55;16.67;;;3.55;;
52798;SDS011;38667;42.872;74.622;2022-08-24T08:06:21;12.18;;;3.00;;
52798;SDS011;38667;42.872;74.622;2022-08-24T08:08:48;10.75;;;3.25;;
52798;SDS011;38667;42.872;74.622;2022-08-24T08:11:14;13.98;;;3.97;;
52798;SDS011;38667;42.872;74.622;2022-08-24T08:13:41;13.18;;;3.40;;
52798;SDS011;38667;42.872;74.622;2022-08-24T08:16:08;8.25;;;2.88;;
52798;SDS011;38667;42.872;74.622;2022-08-24T08:18:35;11.35;;;2.88;;
52798;SDS011;38667;42.872;74.622;2022-08-24T08:21:01;6.75;;;2.40;;
52798;SDS011;38667;42.872;74.622;2022-08-24T08:23:28;5.13;;;2.40;;
52798;SDS011;38667;42.872;74.622;2022-08-24T08:25:55;7.82;;;2.55;;
52798;SDS011;38667;42.872;74.622;2022-08-24T08:28:22;8.50;;;2.80;;
52798;SDS011;38667;42.872;74.622;2022-08-24T08:30:48;11.50;;;2.70;;
52798;SDS011;38667;42.872;74.622;2022-08-24T08:33:16;10.02;;;2.63;;
52798;SDS011;38667;42.872;74.622;2022-08-24T08:35:43;8.10;;;2.45;;
52798;SDS011;38667;42.872;74.622;2022-08-24T08:38:09;4.93;;;2.40;;
52798;SDS011;38667;42.872;74.622;2022-08-24T08:40:39;5.65;;;1.95;;
52798;SDS011;38667;42.872;74.622;2022-08-24T08:43:16;6.30;;;1.55;;
52798;SDS011;38667;42.872;74.622;2022-08-24T08:46:06;10.23;;;2.47;;
52798;SDS011;38667;42.872;74.622;2022-08-24T08:48:56;4.78;;;2.08;;
52798;SDS011;38667;42.872;74.622;2022-08-24T08:54:39;11.23;;;2.33;;
52798;SDS011;38667;42.872;74.622;2022-08-24T08:57:16;9.10;;;2.20;;
52798;SDS011;38667;42.872;74.622;2022-08-24T09:00:05;11.18;;;2.03;;
52798;SDS011;38667;42.872;74.622;2022-08-24T09:02:47;4.45;;;1.95;;
52798;SDS011;38667;42.872;74.622;2022-08-24T09:08:32;6.63;;;2.10;;
52798;SDS011;38667;42.872;74.622;2022-08-24T09:11:18;9.40;;;2.10;;
52798;SDS011;38667;42.872;74.622;2022-08-24T09:17:00;7.07;;;2.38;;
52798;SDS011;38667;42.872;74.622;2022-08-24T09:19:41;6.22;;;2.50;;
52798;SDS011;38667;42.872;74.622;2022-08-24T09:22:21;8.38;;;2.25;;
52798;SDS011;38667;42.872;74.622;2022-08-24T09:27:42;5.78;;;2.15;;
52798;SDS011;38667;42.872;74.622;2022-08-24T09:30:18;3.45;;;1.70;;
52798;SDS011;38667;42.872;74.622;2022-08-24T09:32:57;5.43;;;2.35;;
52798;SDS011;38667;42.872;74.622;2022-08-24T09:35:34;6.03;;;2.20;;
52798;SDS011;38667;42.872;74.622;2022-08-24T09:38:20;6.10;;;2.13;;
52798;SDS011;38667;42.872;74.622;2022-08-24T09:47:09;8.38;;;2.10;;
52798;SDS011;38667;42.872;74.622;2022-08-24T09:56:21;9.10;;;2.10;;
52798;SDS011;38667;42.872;74.622;2022-08-24T09:59:02;7.35;;;1.85;;
52798;SDS011;38667;42.872;74.622;2022-08-24T10:01:42;5.80;;;2.20;;
52798;SDS011;38667;42.872;74.622;2022-08-24T10:04:21;6.35;;;2.13;;
52798;SDS011;38667;42.872;74.622;2022-08-24T10:06:56;5.20;;;2.03;;
52798;SDS011;38667;42.872;74.622;2022-08-24T10:12:32;10.38;;;2.15;;
52798;SDS011;38667;42.872;74.622;2022-08-24T10:15:22;7.25;;;1.73;;
52798;SDS011;38667;42.872;74.622;2022-08-24T10:17:57;6.72;;;2.50;;
52798;SDS011;38667;42.872;74.622;2022-08-24T10:20:49;9.13;;;2.30;;
52798;SDS011;38667;42.872;74.622;2022-08-24T10:23:29;9.32;;;1.95;;
52798;SDS011;38667;42.872;74.622;2022-08-24T10:26:07;5.88;;;1.80;;
52798;SDS011;38667;42.872;74.622;2022-08-24T10:31:37;9.88;;;1.80;;
52798;SDS011;38667;42.872;74.622;2022-08-24T10:34:15;11.10;;;2.22;;
52798;SDS011;38667;42.872;74.622;2022-08-24T10:37:05;4.85;;;1.90;;
52798;SDS011;38667;42.872;74.622;2022-08-24T10:40:03;11.10;;;2.35;;
52798;SDS011;38667;42.872;74.622;2022-08-24T10:46:04;3.15;;;1.65;;
52798;SDS011;38667;42.872;74.622;2022-08-24T10:52:12;6.63;;;2.00;;
52798;SDS011;38667;42.872;74.622;2022-08-24T10:55:13;12.05;;;2.13;;
52798;SDS011;38667;42.872;74.622;2022-08-24T10:57:45;11.32;;;2.22;;
52798;SDS011;38667;42.872;74.622;2022-08-24T11:00:21;7.18;;;1.98;;
52798;SDS011;38667;42.872;74.622;2022-08-24T11:03:03;11.13;;;2.25;;
52798;SDS011;38667;42.872;74.622;2022-08-24T11:05:34;8.18;;;2.00;;
52798;SDS011;38667;42.872;74.622;2022-08-24T11:08:05;10.07;;;1.80;;
52798;SDS011;38667;42.872;74.622;2022-08-24T11:10:33;2.47;;;1.38;;
52798;SDS011;38667;42.872;74.622;2022-08-24T11:13:12;6.90;;;1.85;;
52798;SDS011;38667;42.872;74.622;2022-08-24T11:15:47;9.75;;;2.35;;
52798;SDS011;38667;42.872;74.622;2022-08-24T11:18:15;5.65;;;1.60;;
52798;SDS011;38667;42.872;74.622;2022-08-24T11:20:43;4.72;;;1.92;;
52798;SDS011;38667;42.872;74.622;2022-08-24T11:23:13;13.15;;;3.10;;
52798;SDS011;38667;42.872;74.622;2022-08-24T11:25:44;6.22;;;1.83;;
52798;SDS011;38667;42.872;74.622;2022-08-24T11:28:19;9.63;;;1.85;;
52798;SDS011;38667;42.872;74.622;2022-08-24T11:30:51;8.40;;;1.77;;
52798;SDS011;38667;42.872;74.622;2022-08-24T11:33:25;8.30;;;2.00;;
52798;SDS011;38667;42.872;74.622;2022-08-24T11:35:53;9.25;;;1.80;;
52798;SDS011;38667;42.872;74.622;2022-08-24T11:38:21;7.53;;;2.30;;
52798;SDS011;38667;42.872;74.622;2022-08-24T11:40:49;5.50;;;2.08;;
52798;SDS011;38667;42.872;74.622;2022-08-24T11:43:20;5.78;;;2.00;;
52798;SDS011;38667;42.872;74.622;2022-08-24T11:46:02;6.43;;;2.00;;
52798;SDS011;38667;42.872;74.622;2022-08-24T11:48:41;6.18;;;2.03;;
52798;SDS011;38667;42.872;74.622;2022-08-24T11:51:15;7.57;;;2.08;;
52798;SDS011;38667;42.872;74.622;2022-08-24T11:53:56;5.50;;;2.42;;
52798;SDS011;38667;42.872;74.622;2022-08-24T11:56:29;5.30;;;1.98;;
52798;SDS011;38667;42.872;74.622;2022-08-24T11:59:02;6.03;;;1.80;;
52798;SDS011;38667;42.872;74.622;2022-08-24T12:01:37;6.18;;;1.92;;
52798;SDS011;38667;42.872;74.622;2022-08-24T12:04:14;4.20;;;1.90;;
52798;SDS011;38667;42.872;74.622;2022-08-24T12:07:18;8.93;;;2.40;;
52798;SDS011;38667;42.872;74.622;2022-08-24T12:10:00;9.63;;;2.65;;
52798;SDS011;38667;42.872;74.622;2022-08-24T12:12:36;7.63;;;1.98;;
52798;SDS011;38667;42.872;74.622;2022-08-24T12:15:10;11.63;;;2.00;;
52798;SDS011;38667;42.872;74.622;2022-08-24T12:17:43;7.75;;;1.85;;
52798;SDS011;38667;42.872;74.622;2022-08-24T12:20:20;7.35;;;1.88;;
52798;SDS011;38667;42.872;74.622;2022-08-24T12:22:50;7.32;;;1.85;;
52798;SDS011;38667;42.872;74.622;2022-08-24T12:25:21;16.60;;;2.45;;
52798;SDS011;38667;42.872;74.622;2022-08-24T12:27:49;9.95;;;2.22;;
52798;SDS011;38667;42.872;74.622;2022-08-24T12:30:17;12.15;;;2.00;;
52798;SDS011;38667;42.872;74.622;2022-08-24T12:32:46;5.93;;;2.42;;
52798;SDS011;38667;42.872;74.622;2022-08-24T12:35:17;13.15;;;2.67;;
52798;SDS011;38667;42.872;74.622;2022-08-24T12:37:46;7.20;;;2.60;;
52798;SDS011;38667;42.872;74.622;2022-08-24T12:40:19;5.18;;;2.03;;
52798;SDS011;38667;42.872;74.622;2022-08-24T12:42:51;9.88;;;2.60;;
52798;SDS011;38667;42.872;74.622;2022-08-24T12:45:22;8.50;;;2.20;;
52798;SDS011;38667;42.872;74.622;2022-08-24T12:47:53;8.30;;;2.70;;
52798;SDS011;38667;42.872;74.622;2022-08-24T12:50:25;7.63;;;2.63;;
52798;SDS011;38667;42.872;74.622;2022-08-24T12:53:08;13.70;;;3.22;;
52798;SDS011;38667;42.872;74.622;2022-08-24T12:55:49;8.05;;;2.63;;
52798;SDS011;38667;42.872;74.622;2022-08-24T12:58:44;10.93;;;3.40;;
52798;SDS011;38667;42.872;74.622;2022-08-24T13:01:18;8.25;;;2.72;;
52798;SDS011;38667;42.872;74.622;2022-08-24T13:03:49;20.63;;;3.80;;
52798;SDS011;38667;42.872;74.622;2022-08-24T13:06:40;8.48;;;3.30;;
52798;SDS011;38667;42.872;74.622;2022-08-24T13:09:12;7.43;;;2.97;;
52798;SDS011;38667;42.872;74.622;2022-08-24T13:11:50;7.38;;;2.97;;
52798;SDS011;38667;42.872;74.622;2022-08-24T13:14:18;8.55;;;3.10;;
52798;SDS011;38667;42.872;74.622;2022-08-24T13:16:46;8.85;;;2.90;;
52798;SDS011;38667;42.872;74.622;2022-08-24T13:19:35;12.05;;;3.50;;
52798;SDS011;38667;42.872;74.622;2022-08-24T13:25:17;12.05;;;3.53;;
52798;SDS011;38667;42.872;74.622;2022-08-24T13:28:04;11.30;;;4.13;;
52798;SDS011;38667;42.872;74.622;2022-08-24T13:33:29;9.65;;;4.53;;
52798;SDS011;38667;42.872;74.622;2022-08-24T13:36:03;9.45;;;4.30;;
52798;SDS011;38667;42.872;74.622;2022-08-24T13:38:56;12.55;;;5.20;;
52798;SDS011;38667;42.872;74.622;2022-08-24T13:44:28;17.80;;;6.75;;
52798;SDS011;38667;42.872;74.622;2022-08-24T13:47:10;16.25;;;6.10;;
52798;SDS011;38667;42.872;74.622;2022-08-24T13:49:51;10.20;;;6.38;;
52798;SDS011;38667;42.872;74.622;2022-08-24T13:52:37;13.40;;;6.97;;
52798;SDS011;38667;42.872;74.622;2022-08-24T14:00:58;21.80;;;8.93;;
52798;SDS011;38667;42.872;74.622;2022-08-24T14:03:43;17.38;;;7.70;;
52798;SDS011;38667;42.872;74.622;2022-08-24T14:06:38;23.48;;;8.98;;
52798;SDS011;38667;42.872;74.622;2022-08-24T14:09:16;23.35;;;9.60;;
52798;SDS011;38667;42.872;74.622;2022-08-24T14:12:02;25.38;;;10.27;;
52798;SDS011;38667;42.872;74.622;2022-08-24T14:14:50;20.45;;;10.18;;
52798;SDS011;38667;42.872;74.622;2022-08-24T14:17:28;30.55;;;10.70;;
52798;SDS011;38667;42.872;74.622;2022-08-24T14:20:03;31.17;;;12.05;;
52798;SDS011;38667;42.872;74.622;2022-08-24T14:22:34;23.20;;;11.20;;
52798;SDS011;38667;42.872;74.622;2022-08-24T14:25:15;24.02;;;11.27;;
52798;SDS011;38667;42.872;74.622;2022-08-24T14:27:48;22.80;;;10.85;;
52798;SDS011;38667;42.872;74.622;2022-08-24T14:33:13;27.02;;;11.90;;
52798;SDS011;38667;42.872;74.622;2022-08-24T14:35:46;26.08;;;11.65;;
52798;SDS011;38667;42.872;74.622;2022-08-24T14:38:30;32.72;;;12.45;;
52798;SDS011;38667;42.872;74.622;2022-08-24T14:44:10;24.88;;;12.07;;
52798;SDS011;38667;42.872;74.622;2022-08-24T14:46:50;31.50;;;12.50;;
52798;SDS011;38667;42.872;74.622;2022-08-24T14:49:26;33.15;;;12.68;;
52798;SDS011;38667;42.872;74.622;2022-08-24T14:52:10;36.58;;;13.23;;
52798;SDS011;38667;42.872;74.622;2022-08-24T14:54:48;37.28;;;12.98;;
52798;SDS011;38667;42.872;74.622;2022-08-24T14:57:37;29.05;;;11.68;;
52798;SDS011;38667;42.872;74.622;2022-08-24T15:00:22;28.67;;;13.50;;
52798;SDS011;38667;42.872;74.622;2022-08-24T15:05:59;35.38;;;14.27;;
52798;SDS011;38667;42.872;74.622;2022-08-24T15:08:32;42.88;;;16.63;;
52798;SDS011;38667;42.872;74.622;2022-08-24T15:11:01;37.15;;;16.23;;
52798;SDS011;38667;42.872;74.622;2022-08-24T15:13:36;39.50;;;16.35;;
52798;SDS011;38667;42.872;74.622;2022-08-24T15:16:08;37.15;;;15.70;;
52798;SDS011;38667;42.872;74.622;2022-08-24T15:18:39;40.42;;;15.73;;
52798;SDS011;38667;42.872;74.622;2022-08-24T15:21:17;36.85;;;14.98;;
52798;SDS011;38667;42.872;74.622;2022-08-24T15:26:49;41.53;;;12.98;;
52798;SDS011;38667;42.872;74.622;2022-08-24T15:29:25;36.47;;;13.68;;
52798;SDS011;38667;42.872;74.622;2022-08-24T15:31:56;35.28;;;13.50;;
52798;SDS011;38667;42.872;74.622;2022-08-24T15:34:32;40.80;;;15.98;;
52798;SDS011;38667;42.872;74.622;2022-08-24T15:37:04;33.42;;;14.90;;
52798;SDS011;38667;42.872;74.622;2022-08-24T15:39:31;33.25;;;14.05;;
52798;SDS011;38667;42.872;74.622;2022-08-24T15:41:57;34.00;;;14.38;;
52798;SDS011;38667;42.872;74.622;2022-08-24T15:44:31;31.88;;;14.35;;
52798;SDS011;38667;42.872;74.622;2022-08-24T15:47:02;36.33;;;14.80;;
52798;SDS011;38667;42.872;74.622;2022-08-24T15:49:44;39.88;;;14.57;;
52798;SDS011;38667;42.872;74.622;2022-08-24T15:52:30;42.83;;;15.57;;
52798;SDS011;38667;42.872;74.622;2022-08-24T15:55:14;37.92;;;16.35;;
52798;SDS011;38667;42.872;74.622;2022-08-24T15:57:54;37.55;;;16.35;;
52798;SDS011;38667;42.872;74.622;2022-08-24T16:00:24;41.78;;;17.23;;